createdAt,value
2022-08-24T00:02:17.817Z,27.75
2022-08-24T00:07:27.524Z,26.45
2022-08-24T00:12:32.267Z,26.50
2022-08-24T00:17:37.296Z,27.13
2022-08-24T00:22:41.290Z,27.88
2022-08-24T00:27:45.131Z,29.30
2022-08-24T00:32:50.771Z,26.58
2022-08-24T00:37:54.923Z,27.73
2022-08-24T00:43:03.295Z,26.60
2022-08-24T00:48:14.887Z,27.63
2022-08-24T00:53:24.855Z,28.70
2022-08-24T00:58:32.485Z,27.20
2022-08-24T01:03:38.574Z,29.35
2022-08-24T01:08:41.990Z,29.33
2022-08-24T01:13:48.158Z,27.83
2022-08-24T01:18:52.990Z,27.05
2022-08-24T01:24:00.020Z,28.27
2022-08-24T01:29:07.986Z,31.05
2022-08-24T01:34:13.092Z,29.25
2022-08-24T01:39:21.678Z,29.95
2022-08-24T01:44:27.074Z,31.90
2022-08-24T01:49:33.822Z,31.33
2022-08-24T01:54:39.045Z,30.75
2022-08-24T01:59:47.213Z,31.50
2022-08-24T02:04:50.624Z,30.38
2022-08-24T02:09:55.343Z,30.02
2022-08-24T02:14:58.710Z,31.70
2022-08-24T02:20:02.940Z,31.00
2022-08-24T02:25:08.526Z,29.40
2022-08-24T02:30:18.694Z,31.30
2022-08-24T02:35:22.794Z,31.88
2022-08-24T02:40:27.986Z,32.33
2022-08-24T02:45:31.426Z,31.60
2022-08-24T02:50:34.963Z,31.55
2022-08-24T02:55:41.232Z,32.22
2022-08-24T03:00:48.193Z,33.20
2022-08-24T03:05:51.962Z,29.27
2022-08-24T03:10:59.083Z,30.40
2022-08-24T03:16:03.200Z,30.55
2022-08-24T03:21:07.171Z,29.08
2022-08-24T03:26:13.481Z,30.58
2022-08-24T03:31:17.029Z,29.75
2022-08-24T03:36:20.629Z,27.17
2022-08-24T03:41:25.818Z,26.25
2022-08-24T03:46:32.384Z,26.25
2022-08-24T03:51:37.171Z,26.38
2022-08-24T03:56:42.451Z,24.92
2022-08-24T04:01:45.970Z,26.45
2022-08-24T04:06:49.353Z,28.67
2022-08-24T04:11:54.056Z,26.77
2022-08-24T04:16:58.168Z,27.38
2022-08-24T04:22:01.731Z,26.88
2022-08-24T04:27:06.831Z,27.33
2022-08-24T04:32:10.472Z,28.35
2022-08-24T04:37:14.372Z,27.17
2022-08-24T04:42:19.990Z,25.65
2022-08-24T04:47:24.287Z,24.30
2022-08-24T04:52:27.957Z,25.23
2022-08-24T04:57:34.495Z,25.75
2022-08-24T05:02:44.697Z,22.63
2022-08-24T05:07:51.461Z,24.40
2022-08-24T05:12:58.639Z,23.60
2022-08-24T05:18:02.649Z,21.83
2022-08-24T05:23:08.789Z,21.65
2022-08-24T05:28:13.620Z,22.55
2022-08-24T05:33:16.961Z,22.67
2022-08-24T05:38:20.302Z,22.98
2022-08-24T05:43:25.276Z,23.00
2022-08-24T05:48:28.803Z,22.17
2022-08-24T05:53:32.413Z,20.98
2022-08-24T05:58:38.403Z,21.98
2022-08-24T06:03:42.481Z,21.73
2022-08-24T06:08:49.406Z,21.15
2022-08-24T06:13:59.114Z,21.73
2022-08-24T06:19:03.433Z,24.63
2022-08-24T06:24:08.205Z,20.27
2022-08-24T06:29:13.734Z,20.63
2022-08-24T06:34:19.617Z,20.67
2022-08-24T06:39:22.995Z,21.42
2022-08-24T06:44:28.400Z,22.35
2022-08-24T06:49:31.888Z,21.25
2022-08-24T06:54:36.858Z,22.83
2022-08-24T06:59:43.197Z,21.75
2022-08-24T07:04:47.065Z,21.13
2022-08-24T07:09:50.787Z,21.30
2022-08-24T07:14:55.848Z,21.95
2022-08-24T07:19:59.279Z,23.45
2022-08-24T07:25:02.600Z,23.83
2022-08-24T07:30:27.296Z,20.98
2022-08-24T07:35:33.580Z,21.13
2022-08-24T07:41:01.655Z,19.17
2022-08-24T07:46:02.038Z,17.85
2022-08-24T07:51:09.208Z,17.50
2022-08-24T07:56:14.379Z,17.40
2022-08-24T08:01:19.755Z,18.98
2022-08-24T08:06:23.186Z,18.20
2022-08-24T08:11:26.796Z,21.83
2022-08-24T08:16:31.615Z,20.50
2022-08-24T08:21:52.363Z,18.35
2022-08-24T08:26:55.854Z,17.05
2022-08-24T08:32:01.273Z,18.33
2022-08-24T08:37:05.012Z,18.92
2022-08-24T08:42:54.712Z,17.80
2022-08-24T08:48:27.016Z,20.48
2022-08-24T08:54:14.504Z,17.92
2022-08-24T08:59:37.380Z,20.48
2022-08-24T09:05:24.911Z,21.58
2022-08-24T09:10:48.997Z,19.55
2022-08-24T09:16:12.559Z,19.80
2022-08-24T09:21:49.516Z,17.77
2022-08-24T09:27:04.204Z,18.30
2022-08-24T09:32:27.715Z,19.35
2022-08-24T09:37:43.290Z,17.52
2022-08-24T09:43:18.013Z,17.95
2022-08-24T09:48:42.394Z,16.77
2022-08-24T09:54:18.653Z,18.17
2022-08-24T09:59:41.662Z,17.95
2022-08-24T10:04:58.245Z,18.52
2022-08-24T10:10:17.274Z,19.17
2022-08-24T10:15:28.602Z,18.70
2022-08-24T10:20:50.531Z,16.88
2022-08-24T10:26:00.906Z,17.40
2022-08-24T10:31:12.058Z,18.80
2022-08-24T10:36:28.109Z,18.60
2022-08-24T10:42:10.576Z,19.95
2022-08-24T10:47:21.750Z,20.90
2022-08-24T10:52:55.004Z,20.35
2022-08-24T11:03:15.166Z,18.98
2022-08-24T11:08:23.810Z,19.20
2022-08-24T11:13:28.301Z,18.33
2022-08-24T11:18:49.463Z,19.63
2022-08-24T11:23:53.080Z,18.30
2022-08-24T11:29:02.084Z,19.40
2022-08-24T11:34:10.685Z,18.98
2022-08-24T11:39:22.660Z,16.08
2022-08-24T11:44:39.075Z,15.32
2022-08-24T11:49:51.508Z,17.15
2022-08-24T11:55:02.630Z,16.92
2022-08-24T12:00:12.780Z,17.67
2022-08-24T12:05:27.174Z,17.30
2022-08-24T12:10:39.098Z,15.93
2022-08-24T12:15:52.128Z,17.00
2022-08-24T12:20:58.407Z,16.23
2022-08-24T12:26:05.649Z,15.65
2022-08-24T12:31:19.018Z,14.57
2022-08-24T12:36:29.659Z,15.00
2022-08-24T12:41:35.696Z,13.50
2022-08-24T12:46:43.103Z,13.65
2022-08-24T12:52:14.118Z,13.32
2022-08-24T12:57:51.864Z,14.05
2022-08-24T13:03:01.777Z,16.13
2022-08-24T13:08:13.930Z,13.73
2022-08-24T13:19:13.595Z,15.02
2022-08-24T13:25:01.982Z,14.20
2022-08-24T13:30:08.697Z,13.07
2022-08-24T13:35:31.605Z,13.40
2022-08-24T13:40:49.385Z,13.15
2022-08-24T13:45:57.977Z,13.10
2022-08-24T13:51:25.587Z,11.77
2022-08-24T13:56:45.513Z,10.45
2022-08-24T14:02:03.866Z,9.43
2022-08-24T14:07:15.702Z,10.85
2022-08-24T14:12:38.343Z,10.97
2022-08-24T14:23:07.053Z,9.40
2022-08-24T14:28:38.685Z,9.83
2022-08-24T14:33:50.603Z,9.60
2022-08-24T14:44:19.892Z,8.88
2022-08-24T14:49:34.898Z,9.35
2022-08-24T14:54:48.698Z,9.18
2022-08-24T15:00:08.027Z,8.00
2022-08-24T15:05:22.072Z,8.48
2022-08-24T15:10:29.245Z,9.32
2022-08-24T15:15:40.739Z,7.88
2022-08-24T15:26:08.302Z,8.20
2022-08-24T15:31:22.268Z,9.75
2022-08-24T15:36:26.361Z,9.60
2022-08-24T15:41:33.030Z,10.05
2022-08-24T15:46:40.821Z,9.45
2022-08-24T15:51:51.879Z,8.75
2022-08-24T15:56:58.513Z,11.43
2022-08-24T16:02:30.519Z,8.88
2022-08-24T16:08:05.428Z,9.93
2022-08-24T16:13:14.260Z,8.52
2022-08-24T16:18:20.634Z,8.40
2022-08-24T16:23:28.304Z,11.05
2022-08-24T16:28:37.817Z,7.75
2022-08-24T16:33:44.635Z,8.20
2022-08-24T16:38:54.253Z,8.23
2022-08-24T16:43:58.239Z,7.45
2022-08-24T16:49:01.871Z,7.55
2022-08-24T16:54:07.063Z,9.52
2022-08-24T16:59:15.331Z,7.05
2022-08-24T17:04:18.989Z,7.15
2022-08-24T17:09:23.773Z,7.55
2022-08-24T17:14:27.122Z,7.53
2022-08-24T17:19:32.408Z,8.48
2022-08-24T17:24:37.449Z,8.95
2022-08-24T17:29:41.861Z,10.50
2022-08-24T17:34:45.485Z,7.65
2022-08-24T17:39:55.076Z,8.38
2022-08-24T17:44:59.176Z,8.07
2022-08-24T17:50:06.071Z,8.80
2022-08-24T17:55:14.279Z,9.70
2022-08-24T18:00:17.879Z,10.80
2022-08-24T18:05:21.880Z,9.18
2022-08-24T18:10:29.026Z,9.68
2022-08-24T18:15:36.398Z,10.35
2022-08-24T18:20:42.555Z,9.75
2022-08-24T18:25:50.528Z,10.98
2022-08-24T18:30:54.296Z,10.30
2022-08-24T18:35:58.225Z,10.85
2022-08-24T18:41:04.125Z,11.30
2022-08-24T18:46:08.699Z,11.10
2022-08-24T18:51:21.951Z,11.15
2022-08-24T18:56:27.386Z,11.25
2022-08-24T19:01:31.641Z,11.45
2022-08-24T19:06:35.518Z,12.35
2022-08-24T19:11:40.496Z,11.40
2022-08-24T19:16:43.883Z,12.15
2022-08-24T19:21:47.672Z,12.65
2022-08-24T19:26:53.008Z,12.77
2022-08-24T19:31:56.720Z,12.45
2022-08-24T19:37:00.510Z,13.55
2022-08-24T19:42:06.849Z,13.02
2022-08-24T19:47:14.870Z,12.43
2022-08-24T19:52:18.513Z,13.85
2022-08-24T19:57:41.596Z,14.52
2022-08-24T20:02:45.897Z,13.85
2022-08-24T20:07:49.839Z,14.35
2022-08-24T20:12:55.119Z,15.18
2022-08-24T20:17:59.414Z,13.95
2022-08-24T20:23:03.294Z,13.60
2022-08-24T20:33:32.099Z,13.88
2022-08-24T20:38:35.750Z,14.60
2022-08-24T20:43:41.030Z,15.05
2022-08-24T20:48:44.964Z,14.23
2022-08-24T20:53:49.034Z,15.32
2022-08-24T20:58:53.776Z,16.35
2022-08-24T21:04:01.509Z,18.63
2022-08-24T21:09:14.223Z,21.95
2022-08-24T21:14:20.404Z,22.35
2022-08-24T21:19:23.843Z,24.63
2022-08-24T21:24:27.583Z,29.02
2022-08-24T21:29:33.117Z,26.80
2022-08-24T21:34:42.696Z,24.20
2022-08-24T21:39:47.542Z,25.35
2022-08-24T21:44:53.242Z,24.17
2022-08-24T21:49:57.303Z,23.13
2022-08-24T21:55:01.172Z,23.70
2022-08-24T22:00:08.738Z,23.98
2022-08-24T22:05:12.114Z,23.15
2022-08-24T22:10:15.561Z,22.02
2022-08-24T22:15:23.250Z,23.35
2022-08-24T22:20:27.108Z,21.88
2022-08-24T22:25:30.628Z,20.52
2022-08-24T22:30:35.577Z,21.98
2022-08-24T22:35:44.983Z,21.60
2022-08-24T22:40:54.935Z,22.40
2022-08-24T22:45:59.868Z,21.27
2022-08-24T22:51:03.407Z,20.83
2022-08-24T22:56:16.037Z,19.55
2022-08-24T23:01:22.747Z,18.25
2022-08-24T23:06:26.505Z,20.17
2022-08-24T23:11:31.045Z,21.23
2022-08-24T23:16:39.595Z,20.88
2022-08-24T23:21:43.895Z,22.08
2022-08-24T23:26:47.298Z,21.60
2022-08-24T23:31:53.619Z,21.33
2022-08-24T23:36:57.307Z,20.63
2022-08-24T23:42:01.028Z,19.48
2022-08-24T23:47:06.267Z,20.08
2022-08-24T23:52:26.548Z,21.40
2022-08-24T23:57:33.148Z,20.52
